createdAt,value
2018-03-28T00:00:26.156Z,7.10
2018-03-28T00:02:52.594Z,7.10
2018-03-28T00:05:18.898Z,7.10
2018-03-28T00:07:45.215Z,7.20
2018-03-28T00:10:11.568Z,7.20
2018-03-28T00:12:37.915Z,7.20
2018-03-28T00:15:04.229Z,7.20
2018-03-28T00:17:30.587Z,7.30
2018-03-28T00:19:56.900Z,7.30
2018-03-28T00:22:23.206Z,7.30
2018-03-28T00:24:49.536Z,7.20
2018-03-28T00:27:15.893Z,7.30
2018-03-28T00:29:42.220Z,7.30
2018-03-28T00:32:08.651Z,7.30
2018-03-28T00:34:34.982Z,7.30
2018-03-28T00:37:01.417Z,7.30
2018-03-28T00:39:27.746Z,7.30
2018-03-28T00:41:54.058Z,7.30
2018-03-28T00:44:20.387Z,7.20
2018-03-28T00:46:47.565Z,7.20
2018-03-28T00:49:13.896Z,7.20
2018-03-28T00:51:40.221Z,7.40
2018-03-28T00:54:06.792Z,7.20
2018-03-28T00:56:33.137Z,7.30
2018-03-28T00:59:00.209Z,7.30
2018-03-28T01:01:26.521Z,7.30
2018-03-28T01:03:53.620Z,7.40
2018-03-28T01:06:19.942Z,7.40
2018-03-28T01:08:46.293Z,7.40
2018-03-28T01:11:12.638Z,7.40
2018-03-28T01:13:38.984Z,7.50
2018-03-28T01:16:06.121Z,7.60
2018-03-28T01:18:32.448Z,7.50
2018-03-28T01:20:58.773Z,7.60
2018-03-28T01:23:25.081Z,7.60
2018-03-28T01:25:51.412Z,7.70
2018-03-28T01:28:17.719Z,7.70
2018-03-28T01:30:44.495Z,7.70
2018-03-28T01:33:11.608Z,7.70
2018-03-28T01:35:37.974Z,7.70
2018-03-28T01:38:04.323Z,7.70
2018-03-28T01:40:30.736Z,7.70
2018-03-28T01:42:57.065Z,7.70
2018-03-28T01:45:23.445Z,7.80
2018-03-28T01:47:50.504Z,7.80
2018-03-28T01:50:16.909Z,7.80
2018-03-28T01:52:43.301Z,7.80
2018-03-28T01:55:09.637Z,7.90
2018-03-28T01:57:35.967Z,7.90
2018-03-28T02:00:02.342Z,7.90
2018-03-28T02:02:28.734Z,7.90
2018-03-28T02:04:55.061Z,7.90
2018-03-28T02:07:21.400Z,7.90
2018-03-28T02:09:47.732Z,7.80
2018-03-28T02:12:14.053Z,7.90
2018-03-28T02:14:40.389Z,7.80
2018-03-28T02:17:06.803Z,7.90
2018-03-28T02:19:33.133Z,7.90
2018-03-28T02:21:59.496Z,7.90
2018-03-28T02:24:25.830Z,7.80
2018-03-28T02:26:52.134Z,7.90
2018-03-28T02:29:18.442Z,7.80
2018-03-28T02:31:45.485Z,7.80
2018-03-28T02:34:12.534Z,7.80
2018-03-28T02:36:39.597Z,7.80
2018-03-28T02:39:05.920Z,7.80
2018-03-28T02:41:32.246Z,7.80
2018-03-28T02:43:59.285Z,7.90
2018-03-28T02:46:26.316Z,7.90
2018-03-28T02:48:52.716Z,7.90
2018-03-28T02:51:19.032Z,7.80
2018-03-28T02:53:45.339Z,7.90
2018-03-28T02:56:12.394Z,7.90
2018-03-28T02:58:38.717Z,7.90
2018-03-28T03:01:05.766Z,7.90
2018-03-28T03:03:33.857Z,8.00
2018-03-28T03:06:00.173Z,8.00
2018-03-28T03:08:26.539Z,8.00
2018-03-28T03:10:52.837Z,8.10
2018-03-28T03:13:19.176Z,8.10
2018-03-28T03:15:45.524Z,8.10
2018-03-28T03:18:11.824Z,8.10
2018-03-28T03:20:38.914Z,8.10
2018-03-28T03:23:05.230Z,8.10
2018-03-28T03:25:31.542Z,8.10
2018-03-28T03:27:57.847Z,8.20
2018-03-28T03:30:24.912Z,8.20
2018-03-28T03:32:51.975Z,8.20
2018-03-28T03:35:18.296Z,8.20
2018-03-28T03:37:45.373Z,8.20
2018-03-28T03:40:11.672Z,8.20
2018-03-28T03:42:38.749Z,8.20
2018-03-28T03:45:05.097Z,8.30
2018-03-28T03:47:31.508Z,8.30
2018-03-28T03:49:57.807Z,8.30
2018-03-28T03:52:24.889Z,8.30
2018-03-28T03:54:51.195Z,8.30
2018-03-28T03:57:18.264Z,8.40
2018-03-28T03:59:44.656Z,8.30
2018-03-28T04:02:10.985Z,8.40
2018-03-28T04:04:37.296Z,8.40
2018-03-28T04:07:03.645Z,8.40
2018-03-28T04:09:29.957Z,8.50
2018-03-28T04:11:56.268Z,8.50
2018-03-28T04:14:22.582Z,8.40
2018-03-28T04:16:48.919Z,8.40
2018-03-28T04:19:15.248Z,8.40
2018-03-28T04:21:41.564Z,8.40
2018-03-28T04:24:07.886Z,8.40
2018-03-28T04:26:34.956Z,8.40
2018-03-28T04:29:01.287Z,8.30
2018-03-28T04:31:27.628Z,8.40
2018-03-28T04:33:53.943Z,8.40
2018-03-28T04:36:20.259Z,8.40
2018-03-28T04:38:46.568Z,8.30
2018-03-28T04:41:12.890Z,8.50
2018-03-28T04:43:39.196Z,8.40
2018-03-28T04:46:05.509Z,8.40
2018-03-28T04:48:31.805Z,8.40
2018-03-28T04:50:58.865Z,8.40
2018-03-28T04:53:25.161Z,8.40
2018-03-28T04:55:51.497Z,8.50
2018-03-28T04:58:18.580Z,8.50
2018-03-28T05:00:44.906Z,8.50
2018-03-28T05:03:11.225Z,8.50
2018-03-28T05:05:38.277Z,8.50
2018-03-28T05:08:05.318Z,8.50
2018-03-28T05:10:32.375Z,8.50
2018-03-28T05:12:58.751Z,8.50
2018-03-28T05:15:25.098Z,8.40
2018-03-28T05:17:51.418Z,8.40
2018-03-28T05:20:17.771Z,8.40
2018-03-28T05:22:44.129Z,8.40
2018-03-28T05:25:10.414Z,8.40
2018-03-28T05:27:36.728Z,8.50
2018-03-28T05:30:03.184Z,8.50
2018-03-28T05:32:30.220Z,8.60
2018-03-28T05:34:56.561Z,8.50
2018-03-28T05:37:22.887Z,8.60
2018-03-28T05:39:49.677Z,8.60
2018-03-28T05:42:16.020Z,8.70
2018-03-28T05:44:42.818Z,8.60
2018-03-28T05:47:09.235Z,8.70
2018-03-28T05:49:35.560Z,8.70
2018-03-28T05:52:01.957Z,8.70
2018-03-28T05:54:28.287Z,8.80
2018-03-28T05:56:54.616Z,8.80
2018-03-28T05:59:20.939Z,8.90
2018-03-28T06:01:48.024Z,8.90
2018-03-28T06:04:14.370Z,8.90
2018-03-28T06:06:40.704Z,9.00
2018-03-28T06:09:07.026Z,9.10
2018-03-28T06:11:33.385Z,9.10
2018-03-28T06:13:59.720Z,9.10
2018-03-28T06:16:26.048Z,9.10
2018-03-28T06:18:52.381Z,9.20
2018-03-28T06:21:18.712Z,9.20
2018-03-28T06:23:45.021Z,9.30
2018-03-28T06:26:11.349Z,9.30
2018-03-28T06:28:37.679Z,9.30
2018-03-28T06:31:04.028Z,9.30
2018-03-28T06:33:30.366Z,9.20
2018-03-28T06:35:56.777Z,9.30
2018-03-28T06:38:23.105Z,9.30
2018-03-28T06:40:49.436Z,9.40
2018-03-28T06:43:15.769Z,9.50
2018-03-28T06:45:42.091Z,9.60
2018-03-28T06:48:08.384Z,9.70
2018-03-28T06:50:35.466Z,9.90
2018-03-28T06:53:01.785Z,10.00
2018-03-28T06:55:28.085Z,10.70
2018-03-28T06:57:55.171Z,13.00
2018-03-28T07:00:21.505Z,13.00
2018-03-28T07:02:47.829Z,14.90
2018-03-28T07:05:14.165Z,15.80
2018-03-28T07:07:40.484Z,15.20
2018-03-28T07:10:06.850Z,14.60
2018-03-28T07:12:33.208Z,14.20
2018-03-28T07:14:59.615Z,13.80
2018-03-28T07:17:25.938Z,13.50
2018-03-28T07:19:52.254Z,13.10
2018-03-28T07:22:18.577Z,12.90
2018-03-28T07:24:44.897Z,12.70
2018-03-28T07:27:11.219Z,12.60
2018-03-28T07:29:37.565Z,12.40
2018-03-28T07:32:03.895Z,12.10
2018-03-28T07:34:30.248Z,11.70
2018-03-28T07:36:56.553Z,11.60
2018-03-28T07:39:22.892Z,11.40
2018-03-28T07:41:49.207Z,11.20
2018-03-28T07:44:16.258Z,11.10
2018-03-28T07:46:43.304Z,11.00
2018-03-28T07:49:10.367Z,10.90
2018-03-28T07:51:36.960Z,10.90
2018-03-28T07:54:04.076Z,10.70
2018-03-28T07:56:30.392Z,10.70
2018-03-28T07:58:56.704Z,10.70
2018-03-28T08:01:23.740Z,10.80
2018-03-28T08:03:50.833Z,10.50
2018-03-28T08:06:17.164Z,10.50
2018-03-28T08:08:43.489Z,10.60
2018-03-28T08:11:09.813Z,10.50
2018-03-28T08:13:36.108Z,10.40
2018-03-28T08:16:03.180Z,10.40
2018-03-28T08:18:29.522Z,10.40
2018-03-28T08:20:55.858Z,10.40
2018-03-28T08:23:22.161Z,10.60
2018-03-28T08:25:49.233Z,10.90
2018-03-28T08:28:15.569Z,10.90
2018-03-28T08:30:41.940Z,10.90
2018-03-28T08:33:08.266Z,10.80
2018-03-28T08:35:34.686Z,11.00
2018-03-28T08:38:01.036Z,11.00
2018-03-28T08:40:27.388Z,11.20
2018-03-28T08:42:54.452Z,11.30
2018-03-28T08:45:21.504Z,11.30
2018-03-28T08:47:47.818Z,11.20
2018-03-28T08:50:14.894Z,11.40
2018-03-28T08:52:41.270Z,11.30
2018-03-28T08:55:07.596Z,11.60
2018-03-28T08:57:34.005Z,11.50
2018-03-28T09:00:00.352Z,11.60
2018-03-28T09:02:26.677Z,11.60
2018-03-28T09:04:53.014Z,11.70
2018-03-28T09:07:19.341Z,11.70
2018-03-28T09:09:45.648Z,12.00
2018-03-28T09:12:12.107Z,11.80
2018-03-28T09:14:38.434Z,12.10
2018-03-28T09:17:04.766Z,12.20
2018-03-28T09:19:31.073Z,12.00
2018-03-28T09:21:57.375Z,12.00
2018-03-28T09:24:24.457Z,12.20
2018-03-28T09:26:50.812Z,12.20
2018-03-28T09:29:17.092Z,12.40
2018-03-28T09:31:44.177Z,13.20
2018-03-28T09:34:10.456Z,13.20
2018-03-28T09:36:36.762Z,13.70
2018-03-28T09:39:03.102Z,14.10
2018-03-28T09:41:29.548Z,14.00
2018-03-28T09:43:55.932Z,14.20
2018-03-28T09:46:22.232Z,14.40
2018-03-28T09:48:49.315Z,14.80
2018-03-28T09:51:15.666Z,14.80
2018-03-28T09:53:42.072Z,14.70
2018-03-28T09:56:08.388Z,14.80
2018-03-28T09:58:34.700Z,14.70
2018-03-28T10:01:07.682Z,14.60
2018-03-28T10:03:34.785Z,14.70
2018-03-28T10:06:01.113Z,14.70
2018-03-28T10:08:27.425Z,14.20
2018-03-28T10:10:53.722Z,13.90
2018-03-28T10:13:20.918Z,14.00
2018-03-28T10:15:47.293Z,14.00
2018-03-28T10:18:13.638Z,14.00
2018-03-28T10:20:40.792Z,14.00
2018-03-28T10:23:07.930Z,13.80
2018-03-28T10:25:34.266Z,13.80
2018-03-28T10:28:00.600Z,14.00
2018-03-28T10:30:27.677Z,13.90
2018-03-28T10:32:53.994Z,13.90
2018-03-28T10:35:21.083Z,13.90
2018-03-28T10:37:47.416Z,13.90
2018-03-28T10:40:13.781Z,14.00
2018-03-28T10:42:40.165Z,14.30
2018-03-28T10:45:06.555Z,14.10
2018-03-28T10:47:33.640Z,13.80
2018-03-28T10:50:00.066Z,13.80
2018-03-28T10:52:26.388Z,13.90
2018-03-28T10:54:53.440Z,14.20
2018-03-28T10:57:19.769Z,14.20
2018-03-28T10:59:46.076Z,14.00
2018-03-28T11:02:12.424Z,14.00
2018-03-28T11:04:39.511Z,13.80
2018-03-28T11:07:05.836Z,13.70
2018-03-28T11:09:32.167Z,13.70
2018-03-28T11:11:58.510Z,13.50
2018-03-28T11:14:24.829Z,13.50
2018-03-28T11:16:51.204Z,13.60
2018-03-28T11:19:17.533Z,13.50
2018-03-28T11:21:43.883Z,13.60
2018-03-28T11:24:10.977Z,13.20
2018-03-28T11:26:37.273Z,13.10
2018-03-28T11:29:04.456Z,13.10
2018-03-28T11:31:31.453Z,13.40
2018-03-28T11:33:57.752Z,13.40
2018-03-28T11:36:24.177Z,13.60
2018-03-28T11:38:50.496Z,13.50
2018-03-28T11:41:16.816Z,13.40
2018-03-28T11:43:43.180Z,13.60
2018-03-28T11:46:09.541Z,13.70
2018-03-28T11:48:36.628Z,13.60
2018-03-28T11:51:03.016Z,13.60
2018-03-28T11:53:29.356Z,13.50
2018-03-28T11:55:55.690Z,13.50
2018-03-28T11:58:23.386Z,13.30
2018-03-28T12:00:49.850Z,13.30
2018-03-28T12:03:16.164Z,13.20
2018-03-28T12:05:42.493Z,13.30
2018-03-28T12:08:08.844Z,13.30
2018-03-28T12:10:35.177Z,13.40
2018-03-28T12:13:01.487Z,13.40
2018-03-28T12:15:27.824Z,13.50
2018-03-28T12:17:54.129Z,13.60
2018-03-28T12:20:20.455Z,13.60
2018-03-28T12:22:47.538Z,13.50
2018-03-28T12:25:13.840Z,13.50
2018-03-28T12:27:40.187Z,13.50
2018-03-28T12:30:06.533Z,13.40
2018-03-28T12:32:32.870Z,13.40
2018-03-28T12:34:59.192Z,13.40
2018-03-28T12:37:25.498Z,13.30
2018-03-28T12:39:51.811Z,13.20
2018-03-28T12:42:18.857Z,13.20
2018-03-28T12:44:45.912Z,13.30
2018-03-28T12:47:12.995Z,13.30
2018-03-28T12:49:39.348Z,13.30
2018-03-28T12:52:05.670Z,13.60
2018-03-28T12:54:32.218Z,13.50
2018-03-28T12:56:58.532Z,13.50
2018-03-28T12:59:24.863Z,13.60
2018-03-28T13:01:51.161Z,13.50
2018-03-28T13:04:18.276Z,13.60
2018-03-28T13:06:44.632Z,14.10
2018-03-28T13:09:11.672Z,14.20
2018-03-28T13:11:38.866Z,14.50
2018-03-28T13:14:05.161Z,14.50
2018-03-28T13:16:32.364Z,14.90
2018-03-28T13:18:58.668Z,14.90
2018-03-28T13:21:24.993Z,15.00
2018-03-28T13:23:51.304Z,15.20
2018-03-28T13:26:18.434Z,15.20
2018-03-28T13:28:46.929Z,15.10
2018-03-28T13:31:14.229Z,14.50
2018-03-28T13:33:40.678Z,14.40
2018-03-28T13:36:07.094Z,14.20
2018-03-28T13:38:33.515Z,14.00
2018-03-28T13:41:00.207Z,13.90
2018-03-28T13:43:26.668Z,13.70
2018-03-28T13:45:53.821Z,13.50
2018-03-28T13:48:20.971Z,13.40
2018-03-28T13:50:48.080Z,13.30
2018-03-28T13:53:14.397Z,13.30
2018-03-28T13:55:41.059Z,13.40
2018-03-28T13:58:07.456Z,13.70
2018-03-28T14:00:33.804Z,13.70
2018-03-28T14:03:00.326Z,13.70
2018-03-28T14:05:26.826Z,13.80
2018-03-28T14:07:53.880Z,13.50
2018-03-28T14:10:20.277Z,13.50
2018-03-28T14:12:46.622Z,13.40
2018-03-28T14:15:13.712Z,13.20
2018-03-28T14:17:40.049Z,13.20
2018-03-28T14:20:06.501Z,13.00
2018-03-28T14:22:32.847Z,12.90
2018-03-28T14:24:59.175Z,12.90
2018-03-28T14:27:25.552Z,12.70
2018-03-28T14:29:51.881Z,12.70
2018-03-28T14:32:18.242Z,12.50
2018-03-28T14:34:44.573Z,12.40
2018-03-28T14:37:10.907Z,12.30
2018-03-28T14:39:37.251Z,12.20
2018-03-28T14:42:03.697Z,12.40
2018-03-28T14:44:30.044Z,12.30
2018-03-28T14:46:56.409Z,12.30
2018-03-28T14:49:22.729Z,12.30
2018-03-28T14:51:49.825Z,12.40
2018-03-28T14:54:16.174Z,12.40
2018-03-28T14:56:42.495Z,12.40
2018-03-28T14:59:08.927Z,12.40
2018-03-28T15:01:35.285Z,12.40
2018-03-28T15:04:01.612Z,12.40
2018-03-28T15:06:28.081Z,12.30
2018-03-28T15:08:54.474Z,12.30
2018-03-28T15:11:20.913Z,12.20
2018-03-28T15:13:47.336Z,12.10
2018-03-28T15:16:13.801Z,12.10
2018-03-28T15:18:40.864Z,12.00
2018-03-28T15:21:07.249Z,12.00
2018-03-28T15:23:33.565Z,12.00
2018-03-28T15:25:59.886Z,11.90
2018-03-28T15:28:26.219Z,11.70
2018-03-28T15:30:52.568Z,11.70
2018-03-28T15:33:18.984Z,11.80
2018-03-28T15:35:45.284Z,11.70
2018-03-28T15:38:11.608Z,11.60
2018-03-28T15:40:38.692Z,11.60
2018-03-28T15:43:05.034Z,11.60
2018-03-28T15:45:31.348Z,11.60
2018-03-28T15:47:58.205Z,11.60
2018-03-28T15:52:58.323Z,11.50
2018-03-28T15:55:25.235Z,11.50
2018-03-28T15:57:51.584Z,11.50
2018-03-28T16:00:17.894Z,11.50
2018-03-28T16:02:44.946Z,11.50
2018-03-28T16:05:12.002Z,11.60
2018-03-28T16:07:39.965Z,11.50
2018-03-28T16:10:07.201Z,11.50
2018-03-28T16:12:34.330Z,11.40
2018-03-28T16:15:00.697Z,11.40
2018-03-28T16:17:27.793Z,11.50
2018-03-28T16:19:54.916Z,11.50
2018-03-28T16:22:21.270Z,11.50
2018-03-28T16:24:47.601Z,11.50
2018-03-28T16:27:13.912Z,11.30
2018-03-28T16:29:40.274Z,11.40
2018-03-28T16:32:07.211Z,11.30
2018-03-28T16:34:41.952Z,11.30
2018-03-28T16:37:08.766Z,11.30
2018-03-28T16:39:35.130Z,11.30
2018-03-28T16:42:01.492Z,11.20
2018-03-28T16:44:27.824Z,11.20
2018-03-28T16:46:54.872Z,11.20
2018-03-28T16:49:21.943Z,11.10
2018-03-28T16:51:48.282Z,11.10
2018-03-28T16:54:14.606Z,11.10
2018-03-28T16:56:41.125Z,11.10
2018-03-28T16:59:08.199Z,11.30
2018-03-28T17:01:34.682Z,11.20
2018-03-28T17:04:01.769Z,11.30
2018-03-28T17:06:28.828Z,11.30
2018-03-28T17:08:55.440Z,11.20
2018-03-28T17:11:22.479Z,11.00
2018-03-28T17:13:48.939Z,10.90
2018-03-28T17:16:15.344Z,10.90
2018-03-28T17:18:41.880Z,11.40
2018-03-28T17:21:08.207Z,11.90
2018-03-28T17:23:34.564Z,12.30
2018-03-28T17:26:01.610Z,11.80
2018-03-28T17:28:28.765Z,11.50
2018-03-28T17:30:55.075Z,11.50
2018-03-28T17:33:21.395Z,11.40
2018-03-28T17:35:47.798Z,11.40
2018-03-28T17:38:14.266Z,11.20
2018-03-28T17:40:41.356Z,11.10
2018-03-28T17:43:07.669Z,11.00
2018-03-28T17:45:34.721Z,10.80
2018-03-28T17:48:01.044Z,10.80
2018-03-28T17:50:28.124Z,10.70
2018-03-28T17:52:54.458Z,10.70
2018-03-28T17:55:21.118Z,10.70
2018-03-28T17:57:47.455Z,10.60
2018-03-28T18:00:14.693Z,10.60
2018-03-28T18:02:41.042Z,10.60
2018-03-28T18:05:08.743Z,10.60
2018-03-28T18:07:36.092Z,10.60
2018-03-28T18:10:03.401Z,10.50
2018-03-28T18:12:29.844Z,10.50
2018-03-28T18:14:56.173Z,10.50
2018-03-28T18:17:22.500Z,10.60
2018-03-28T18:19:48.830Z,10.60
2018-03-28T18:22:15.208Z,10.60
2018-03-28T18:24:42.495Z,10.60
2018-03-28T18:27:08.876Z,10.70
2018-03-28T18:29:36.520Z,10.60
2018-03-28T18:32:02.887Z,10.60
2018-03-28T18:34:29.967Z,10.70
2018-03-28T18:36:56.348Z,10.70
2018-03-28T18:39:22.652Z,10.60
2018-03-28T18:41:48.992Z,10.70
2018-03-28T18:44:15.309Z,10.80
2018-03-28T18:46:41.629Z,10.80
2018-03-28T18:49:07.977Z,10.80
2018-03-28T18:51:34.308Z,10.80
2018-03-28T18:54:00.680Z,10.90
2018-03-28T18:56:27.724Z,10.90
2018-03-28T18:58:54.809Z,10.80
2018-03-28T19:01:21.104Z,10.80
2018-03-28T19:03:47.445Z,10.80
2018-03-28T19:06:14.530Z,10.70
2018-03-28T19:08:40.874Z,10.70
2018-03-28T19:11:07.196Z,10.70
2018-03-28T19:13:33.563Z,10.70
2018-03-28T19:15:59.883Z,10.80
2018-03-28T19:18:26.219Z,10.80
2018-03-28T19:20:52.573Z,10.70
2018-03-28T19:23:19.747Z,10.60
2018-03-28T19:25:46.083Z,10.60
2018-03-28T19:28:12.413Z,10.50
2018-03-28T19:30:38.737Z,10.50
2018-03-28T19:33:05.837Z,10.40
2018-03-28T19:35:32.156Z,10.40
2018-03-28T19:37:58.499Z,10.40
2018-03-28T19:40:24.866Z,10.40
2018-03-28T19:42:51.949Z,10.40
2018-03-28T19:45:18.310Z,10.40
2018-03-28T19:47:44.668Z,10.40
2018-03-28T19:50:11.014Z,10.30
2018-03-28T19:52:38.116Z,10.30
2018-03-28T19:55:04.472Z,10.30
2018-03-28T19:57:31.017Z,10.30
2018-03-28T19:59:57.477Z,10.30
2018-03-28T20:02:23.831Z,10.40
2018-03-28T20:04:50.188Z,10.50
2018-03-28T20:07:16.541Z,10.30
2018-03-28T20:09:43.666Z,10.30
2018-03-28T20:12:10.158Z,10.30
2018-03-28T20:14:36.538Z,10.40
2018-03-28T20:17:02.893Z,10.30
2018-03-28T20:19:29.356Z,10.30
2018-03-28T20:21:56.436Z,10.40
2018-03-28T20:24:22.768Z,10.40
2018-03-28T20:26:49.083Z,10.40
2018-03-28T20:29:15.398Z,10.40
2018-03-28T20:31:41.706Z,10.40
2018-03-28T20:34:08.784Z,10.50
2018-03-28T20:36:35.141Z,10.40
2018-03-28T20:39:01.461Z,10.40
2018-03-28T20:41:27.775Z,10.40
2018-03-28T20:43:54.096Z,10.40
2018-03-28T20:46:21.187Z,10.50
2018-03-28T20:48:47.541Z,10.50
2018-03-28T20:51:13.877Z,10.50
2018-03-28T20:53:40.312Z,10.60
2018-03-28T20:56:06.640Z,10.50
2018-03-28T20:58:33.039Z,10.50
2018-03-28T21:00:59.369Z,10.50
2018-03-28T21:03:25.729Z,10.40
2018-03-28T21:05:52.164Z,10.30
2018-03-28T21:08:18.500Z,10.20
2018-03-28T21:10:44.969Z,10.20
2018-03-28T21:13:11.305Z,10.10
2018-03-28T21:15:37.624Z,9.90
2018-03-28T21:18:04.726Z,9.90
2018-03-28T21:20:31.049Z,9.80
2018-03-28T21:22:57.472Z,9.90
2018-03-28T21:25:24.900Z,9.80
2018-03-28T21:27:51.975Z,9.80
2018-03-28T21:30:18.407Z,9.70
2018-03-28T21:32:44.738Z,9.70
2018-03-28T21:35:11.078Z,9.90
2018-03-28T21:37:37.420Z,9.70
2018-03-28T21:40:03.940Z,9.70
2018-03-28T21:42:30.261Z,9.60
2018-03-28T21:44:56.634Z,9.60
2018-03-28T21:47:22.941Z,9.70
2018-03-28T21:49:49.353Z,9.60
2018-03-28T21:52:15.704Z,9.60
2018-03-28T21:54:42.006Z,9.50
2018-03-28T21:57:09.091Z,9.60
2018-03-28T21:59:35.402Z,9.60
2018-03-28T22:02:01.821Z,9.50
2018-03-28T22:04:28.154Z,9.40
2018-03-28T22:06:54.544Z,9.30
2018-03-28T22:09:20.868Z,9.30
2018-03-28T22:11:47.305Z,9.40
2018-03-28T22:14:13.704Z,9.30
2018-03-28T22:16:40.042Z,9.30
2018-03-28T22:19:06.374Z,9.30
2018-03-28T22:21:32.764Z,9.20
2018-03-28T22:23:59.909Z,9.20
2018-03-28T22:26:28.910Z,9.10
2018-03-28T22:28:56.117Z,9.10
2018-03-28T22:31:22.448Z,9.10
2018-03-28T22:33:48.769Z,9.00
2018-03-28T22:36:15.190Z,8.90
2018-03-28T22:38:41.493Z,8.80
2018-03-28T22:41:09.256Z,8.80
2018-03-28T22:43:36.380Z,8.70
2018-03-28T22:46:02.705Z,8.70
2018-03-28T22:48:29.100Z,8.70
2018-03-28T22:50:55.396Z,8.70
2018-03-28T22:53:22.477Z,8.50
2018-03-28T22:55:48.824Z,8.50
2018-03-28T22:58:15.239Z,8.40
2018-03-28T23:00:41.545Z,8.40
2018-03-28T23:03:07.921Z,8.20
2018-03-28T23:05:34.245Z,8.10
2018-03-28T23:08:00.586Z,8.00
2018-03-28T23:10:26.903Z,7.90
2018-03-28T23:12:53.257Z,7.90
2018-03-28T23:15:19.641Z,7.90
2018-03-28T23:17:45.968Z,7.80
2018-03-28T23:22:45.334Z,7.70
2018-03-28T23:25:11.644Z,7.60
2018-03-28T23:27:38.116Z,7.60
2018-03-28T23:30:04.582Z,7.60
2018-03-28T23:32:31.710Z,7.60
2018-03-28T23:34:58.122Z,7.60
2018-03-28T23:37:24.476Z,7.50
2018-03-28T23:39:51.597Z,7.50
2018-03-28T23:42:17.939Z,7.50
2018-03-28T23:44:44.281Z,7.50
2018-03-28T23:47:10.613Z,7.60
2018-03-28T23:49:36.949Z,7.50
2018-03-28T23:52:03.338Z,7.60
2018-03-28T23:54:29.658Z,7.70
2018-03-28T23:56:55.998Z,7.60
2018-03-28T23:59:22.324Z,7.60
